sensor_id;sensor_type;location;lat;lon;timestamp;temperature;humidity
67133;HTU21D;54052;53.542;49.408;2022-11-11T00:00:59;5.62;90.63
67133;HTU21D;54052;53.542;49.408;2022-11-11T00:03:26;5.65;90.39
67133;HTU21D;54052;53.542;49.408;2022-11-11T00:05:52;5.68;90.46
67133;HTU21D;54052;53.542;49.408;2022-11-11T00:08:18;5.69;90.35
67133;HTU21D;54052;53.542;49.408;2022-11-11T00:10:44;5.79;89.99
67133;HTU21D;54052;53.542;49.408;2022-11-11T00:13:11;5.80;89.84
67133;HTU21D;54052;53.542;49.408;2022-11-11T00:15:37;5.81;89.78
67133;HTU21D;54052;53.542;49.408;2022-11-11T00:18:05;5.87;89.57
67133;HTU21D;54052;53.542;49.408;2022-11-11T00:20:49;5.90;89.47
67133;HTU21D;54052;53.542;49.408;2022-11-11T00:23:33;5.86;89.73
67133;HTU21D;54052;53.542;49.408;2022-11-11T00:26:18;5.86;89.76
67133;HTU21D;54052;53.542;49.408;2022-11-11T00:28:44;5.96;89.54
67133;HTU21D;54052;53.542;49.408;2022-11-11T00:31:12;5.94;89.29
67133;HTU21D;54052;53.542;49.408;2022-11-11T00:33:38;5.97;89.40
67133;HTU21D;54052;53.542;49.408;2022-11-11T00:36:07;5.92;89.54
67133;HTU21D;54052;53.542;49.408;2022-11-11T00:38:33;5.90;89.70
67133;HTU21D;54052;53.542;49.408;2022-11-11T00:41:13;5.94;89.65
67133;HTU21D;54052;53.542;49.408;2022-11-11T00:43:40;5.98;89.52
67133;HTU21D;54052;53.542;49.408;2022-11-11T00:46:07;6.00;89.45
67133;HTU21D;54052;53.542;49.408;2022-11-11T00:48:51;6.02;89.51
67133;HTU21D;54052;53.542;49.408;2022-11-11T00:51:35;5.97;89.79
67133;HTU21D;54052;53.542;49.408;2022-11-11T00:54:02;5.97;89.72
67133;HTU21D;54052;53.542;49.408;2022-11-11T00:56:28;5.97;89.70
67133;HTU21D;54052;53.542;49.408;2022-11-11T00:58:55;5.90;90.03
67133;HTU21D;54052;53.542;49.408;2022-11-11T01:01:21;5.86;90.24
67133;HTU21D;54052;53.542;49.408;2022-11-11T01:03:47;5.84;90.36
67133;HTU21D;54052;53.542;49.408;2022-11-11T01:06:13;5.83;90.42
67133;HTU21D;54052;53.542;49.408;2022-11-11T01:08:39;5.81;90.38
67133;HTU21D;54052;53.542;49.408;2022-11-11T01:11:15;5.84;90.47
67133;HTU21D;54052;53.542;49.408;2022-11-11T01:13:42;5.85;90.15
67133;HTU21D;54052;53.542;49.408;2022-11-11T01:16:14;5.82;90.36
67133;HTU21D;54052;53.542;49.408;2022-11-11T01:18:40;5.83;90.34
67133;HTU21D;54052;53.542;49.408;2022-11-11T01:21:12;5.82;90.17
67133;HTU21D;54052;53.542;49.408;2022-11-11T01:23:40;5.85;90.01
67133;HTU21D;54052;53.542;49.408;2022-11-11T01:26:16;5.80;89.99
67133;HTU21D;54052;53.542;49.408;2022-11-11T01:28:43;5.75;90.24
67133;HTU21D;54052;53.542;49.408;2022-11-11T01:31:11;5.79;90.28
67133;HTU21D;54052;53.542;49.408;2022-11-11T01:33:38;5.85;90.02
67133;HTU21D;54052;53.542;49.408;2022-11-11T01:36:09;5.86;89.65
67133;HTU21D;54052;53.542;49.408;2022-11-11T01:38:37;5.89;89.52
67133;HTU21D;54052;53.542;49.408;2022-11-11T01:41:05;5.91;89.25
67133;HTU21D;54052;53.542;49.408;2022-11-11T01:43:50;5.89;89.28
67133;HTU21D;54052;53.542;49.408;2022-11-11T01:54:58;5.84;89.35
67133;HTU21D;54052;53.542;49.408;2022-11-11T01:57:27;5.82;89.35
67133;HTU21D;54052;53.542;49.408;2022-11-11T02:00:00;5.80;89.30
67133;HTU21D;54052;53.542;49.408;2022-11-11T02:05:05;5.87;88.79
67133;HTU21D;54052;53.542;49.408;2022-11-11T02:07:52;5.78;89.02
67133;HTU21D;54052;53.542;49.408;2022-11-11T02:10:22;5.76;89.40
67133;HTU21D;54052;53.542;49.408;2022-11-11T02:12:49;5.77;88.99
67133;HTU21D;54052;53.542;49.408;2022-11-11T02:15:34;5.68;89.45
67133;HTU21D;54052;53.542;49.408;2022-11-11T02:18:00;5.67;89.62
67133;HTU21D;54052;53.542;49.408;2022-11-11T02:20:28;5.75;89.11
67133;HTU21D;54052;53.542;49.408;2022-11-11T02:25:29;5.77;88.79
67133;HTU21D;54052;53.542;49.408;2022-11-11T02:28:02;5.75;88.70
67133;HTU21D;54052;53.542;49.408;2022-11-11T02:30:30;5.76;88.54
67133;HTU21D;54052;53.542;49.408;2022-11-11T02:32:56;5.74;88.69
67133;HTU21D;54052;53.542;49.408;2022-11-11T02:35:29;5.75;88.44
67133;HTU21D;54052;53.542;49.408;2022-11-11T02:37:55;5.72;88.41
67133;HTU21D;54052;53.542;49.408;2022-11-11T02:40:32;5.65;88.89
67133;HTU21D;54052;53.542;49.408;2022-11-11T02:43:00;5.59;88.89
67133;HTU21D;54052;53.542;49.408;2022-11-11T02:45:26;5.57;88.96
67133;HTU21D;54052;53.542;49.408;2022-11-11T02:47:52;5.62;88.85
67133;HTU21D;54052;53.542;49.408;2022-11-11T02:50:18;5.60;88.67
67133;HTU21D;54052;53.542;49.408;2022-11-11T02:52:44;5.53;88.89
67133;HTU21D;54052;53.542;49.408;2022-11-11T02:55:11;5.51;89.23
67133;HTU21D;54052;53.542;49.408;2022-11-11T02:57:37;5.52;88.96
67133;HTU21D;54052;53.542;49.408;2022-11-11T03:00:04;5.59;88.76
67133;HTU21D;54052;53.542;49.408;2022-11-11T03:02:30;5.57;88.40
67133;HTU21D;54052;53.542;49.408;2022-11-11T03:04:57;5.63;87.78
67133;HTU21D;54052;53.542;49.408;2022-11-11T03:07:24;5.61;88.18
67133;HTU21D;54052;53.542;49.408;2022-11-11T03:09:50;5.64;87.61
67133;HTU21D;54052;53.542;49.408;2022-11-11T03:12:16;5.64;87.84
67133;HTU21D;54052;53.542;49.408;2022-11-11T03:14:42;5.63;87.70
67133;HTU21D;54052;53.542;49.408;2022-11-11T03:17:08;5.57;88.00
67133;HTU21D;54052;53.542;49.408;2022-11-11T03:19:58;5.57;87.90
67133;HTU21D;54052;53.542;49.408;2022-11-11T03:23:07;5.56;87.83
67133;HTU21D;54052;53.542;49.408;2022-11-11T03:25:40;5.51;87.73
67133;HTU21D;54052;53.542;49.408;2022-11-11T03:28:07;5.42;88.07
67133;HTU21D;54052;53.542;49.408;2022-11-11T03:30:33;5.46;88.15
67133;HTU21D;54052;53.542;49.408;2022-11-11T03:33:00;5.49;88.28
67133;HTU21D;54052;53.542;49.408;2022-11-11T03:35:27;5.55;87.19
67133;HTU21D;54052;53.542;49.408;2022-11-11T03:37:53;5.53;87.70
67133;HTU21D;54052;53.542;49.408;2022-11-11T03:40:38;5.62;86.93
67133;HTU21D;54052;53.542;49.408;2022-11-11T03:43:04;5.52;87.33
67133;HTU21D;54052;53.542;49.408;2022-11-11T03:45:30;5.50;87.37
67133;HTU21D;54052;53.542;49.408;2022-11-11T03:47:57;5.45;87.34
67133;HTU21D;54052;53.542;49.408;2022-11-11T03:50:23;5.48;87.70
67133;HTU21D;54052;53.542;49.408;2022-11-11T03:52:49;5.51;87.30
67133;HTU21D;54052;53.542;49.408;2022-11-11T03:55:15;5.50;87.44
67133;HTU21D;54052;53.542;49.408;2022-11-11T03:57:45;5.51;87.28
67133;HTU21D;54052;53.542;49.408;2022-11-11T04:00:14;5.53;87.61
67133;HTU21D;54052;53.542;49.408;2022-11-11T04:02:40;5.54;86.70
67133;HTU21D;54052;53.542;49.408;2022-11-11T04:05:25;5.54;86.36
67133;HTU21D;54052;53.542;49.408;2022-11-11T04:08:15;5.62;86.25
67133;HTU21D;54052;53.542;49.408;2022-11-11T04:11:04;5.69;85.65
67133;HTU21D;54052;53.542;49.408;2022-11-11T04:13:32;5.71;84.96
67133;HTU21D;54052;53.542;49.408;2022-11-11T04:16:17;5.68;85.00
67133;HTU21D;54052;53.542;49.408;2022-11-11T04:18:43;5.71;84.96
67133;HTU21D;54052;53.542;49.408;2022-11-11T04:21:27;5.72;84.88
67133;HTU21D;54052;53.542;49.408;2022-11-11T04:24:13;5.78;84.44
67133;HTU21D;54052;53.542;49.408;2022-11-11T04:26:59;5.70;84.45
67133;HTU21D;54052;53.542;49.408;2022-11-11T04:29:26;5.63;85.35
67133;HTU21D;54052;53.542;49.408;2022-11-11T04:35:03;5.71;84.88
67133;HTU21D;54052;53.542;49.408;2022-11-11T04:37:31;5.75;84.29
67133;HTU21D;54052;53.542;49.408;2022-11-11T04:39:57;5.78;83.86
67133;HTU21D;54052;53.542;49.408;2022-11-11T04:42:42;5.78;83.84
67133;HTU21D;54052;53.542;49.408;2022-11-11T04:45:10;5.75;84.15
67133;HTU21D;54052;53.542;49.408;2022-11-11T04:48:07;5.79;83.61
67133;HTU21D;54052;53.542;49.408;2022-11-11T04:50:43;5.78;83.78
67133;HTU21D;54052;53.542;49.408;2022-11-11T04:55:59;5.77;83.30
67133;HTU21D;54052;53.542;49.408;2022-11-11T04:58:44;5.78;83.09
67133;HTU21D;54052;53.542;49.408;2022-11-11T05:01:11;5.85;83.21
67133;HTU21D;54052;53.542;49.408;2022-11-11T05:03:57;5.90;82.96
67133;HTU21D;54052;53.542;49.408;2022-11-11T05:06:23;5.90;83.00
67133;HTU21D;54052;53.542;49.408;2022-11-11T05:09:08;5.92;82.82
67133;HTU21D;54052;53.542;49.408;2022-11-11T05:11:35;5.94;82.46
67133;HTU21D;54052;53.542;49.408;2022-11-11T05:14:10;5.96;82.62
67133;HTU21D;54052;53.542;49.408;2022-11-11T05:16:56;5.96;82.13
67133;HTU21D;54052;53.542;49.408;2022-11-11T05:19:41;5.85;82.77
67133;HTU21D;54052;53.542;49.408;2022-11-11T05:22:35;5.80;82.84
67133;HTU21D;54052;53.542;49.408;2022-11-11T05:25:02;5.84;82.97
67133;HTU21D;54052;53.542;49.408;2022-11-11T05:27:47;5.84;82.67
67133;HTU21D;54052;53.542;49.408;2022-11-11T05:30:14;5.89;82.63
67133;HTU21D;54052;53.542;49.408;2022-11-11T05:32:41;5.87;81.78
67133;HTU21D;54052;53.542;49.408;2022-11-11T05:35:08;5.93;81.99
67133;HTU21D;54052;53.542;49.408;2022-11-11T05:37:34;5.98;81.58
67133;HTU21D;54052;53.542;49.408;2022-11-11T05:40:08;5.99;81.48
67133;HTU21D;54052;53.542;49.408;2022-11-11T05:42:34;6.00;82.13
67133;HTU21D;54052;53.542;49.408;2022-11-11T05:45:01;6.11;82.39
67133;HTU21D;54052;53.542;49.408;2022-11-11T05:47:27;6.23;80.49
67133;HTU21D;54052;53.542;49.408;2022-11-11T05:49:53;6.33;79.99
67133;HTU21D;54052;53.542;49.408;2022-11-11T05:52:19;6.37;79.43
67133;HTU21D;54052;53.542;49.408;2022-11-11T05:54:45;6.38;79.85
67133;HTU21D;54052;53.542;49.408;2022-11-11T05:57:11;6.36;80.13
67133;HTU21D;54052;53.542;49.408;2022-11-11T05:59:37;6.31;79.99
67133;HTU21D;54052;53.542;49.408;2022-11-11T06:02:03;6.28;79.92
67133;HTU21D;54052;53.542;49.408;2022-11-11T06:04:30;6.28;80.17
67133;HTU21D;54052;53.542;49.408;2022-11-11T06:06:56;6.31;79.75
67133;HTU21D;54052;53.542;49.408;2022-11-11T06:09:24;6.25;79.44
67133;HTU21D;54052;53.542;49.408;2022-11-11T06:11:50;6.19;79.54
67133;HTU21D;54052;53.542;49.408;2022-11-11T06:14:16;6.15;80.14
67133;HTU21D;54052;53.542;49.408;2022-11-11T06:16:43;6.15;80.68
67133;HTU21D;54052;53.542;49.408;2022-11-11T06:19:09;6.16;80.54
67133;HTU21D;54052;53.542;49.408;2022-11-11T06:21:35;6.20;80.62
67133;HTU21D;54052;53.542;49.408;2022-11-11T06:24:22;6.16;79.99
67133;HTU21D;54052;53.542;49.408;2022-11-11T06:26:48;6.21;79.61
67133;HTU21D;54052;53.542;49.408;2022-11-11T06:29:14;6.24;79.48
67133;HTU21D;54052;53.542;49.408;2022-11-11T06:31:40;6.27;79.75
67133;HTU21D;54052;53.542;49.408;2022-11-11T06:34:06;6.21;79.91
67133;HTU21D;54052;53.542;49.408;2022-11-11T06:36:32;6.14;79.74
67133;HTU21D;54052;53.542;49.408;2022-11-11T06:38:58;6.13;79.56
67133;HTU21D;54052;53.542;49.408;2022-11-11T06:41:25;6.12;79.59
67133;HTU21D;54052;53.542;49.408;2022-11-11T06:43:51;6.12;80.33
67133;HTU21D;54052;53.542;49.408;2022-11-11T06:46:22;6.13;80.35
67133;HTU21D;54052;53.542;49.408;2022-11-11T06:48:58;6.08;79.62
67133;HTU21D;54052;53.542;49.408;2022-11-11T06:51:24;5.99;79.79
67133;HTU21D;54052;53.542;49.408;2022-11-11T06:53:50;5.94;80.43
67133;HTU21D;54052;53.542;49.408;2022-11-11T06:56:17;5.99;80.18
67133;HTU21D;54052;53.542;49.408;2022-11-11T06:58:43;5.99;80.49
67133;HTU21D;54052;53.542;49.408;2022-11-11T07:01:11;5.94;79.60
67133;HTU21D;54052;53.542;49.408;2022-11-11T07:03:37;5.92;79.74
67133;HTU21D;54052;53.542;49.408;2022-11-11T07:06:04;5.90;78.91
67133;HTU21D;54052;53.542;49.408;2022-11-11T07:08:31;5.79;80.07
67133;HTU21D;54052;53.542;49.408;2022-11-11T07:10:57;5.89;78.87
67133;HTU21D;54052;53.542;49.408;2022-11-11T07:13:23;6.00;79.60
67133;HTU21D;54052;53.542;49.408;2022-11-11T07:15:49;6.00;78.88
67133;HTU21D;54052;53.542;49.408;2022-11-11T07:18:34;6.00;79.11
67133;HTU21D;54052;53.542;49.408;2022-11-11T07:21:00;5.96;78.81
67133;HTU21D;54052;53.542;49.408;2022-11-11T07:23:26;5.98;79.71
67133;HTU21D;54052;53.542;49.408;2022-11-11T07:25:52;5.97;79.15
67133;HTU21D;54052;53.542;49.408;2022-11-11T07:28:18;6.01;79.19
67133;HTU21D;54052;53.542;49.408;2022-11-11T07:30:44;5.98;79.75
67133;HTU21D;54052;53.542;49.408;2022-11-11T07:33:10;6.00;79.24
67133;HTU21D;54052;53.542;49.408;2022-11-11T07:35:37;5.96;79.58
67133;HTU21D;54052;53.542;49.408;2022-11-11T07:38:03;6.02;78.82
67133;HTU21D;54052;53.542;49.408;2022-11-11T07:40:29;6.01;78.72
67133;HTU21D;54052;53.542;49.408;2022-11-11T07:42:55;6.07;79.00
67133;HTU21D;54052;53.542;49.408;2022-11-11T07:45:34;6.14;79.28
67133;HTU21D;54052;53.542;49.408;2022-11-11T07:48:00;6.21;79.41
67133;HTU21D;54052;53.542;49.408;2022-11-11T07:50:26;6.36;78.67
67133;HTU21D;54052;53.542;49.408;2022-11-11T07:52:53;6.48;78.14
67133;HTU21D;54052;53.542;49.408;2022-11-11T07:55:19;6.49;77.54
67133;HTU21D;54052;53.542;49.408;2022-11-11T07:57:45;6.45;78.40
67133;HTU21D;54052;53.542;49.408;2022-11-11T08:00:12;6.51;77.56
67133;HTU21D;54052;53.542;49.408;2022-11-11T08:02:38;6.37;78.13
67133;HTU21D;54052;53.542;49.408;2022-11-11T08:05:04;6.43;77.84
67133;HTU21D;54052;53.542;49.408;2022-11-11T08:07:33;6.56;79.24
67133;HTU21D;54052;53.542;49.408;2022-11-11T08:10:02;6.66;78.21
67133;HTU21D;54052;53.542;49.408;2022-11-11T08:12:28;6.78;77.70
67133;HTU21D;54052;53.542;49.408;2022-11-11T08:15:19;6.84;77.21
67133;HTU21D;54052;53.542;49.408;2022-11-11T08:17:45;6.81;77.21
67133;HTU21D;54052;53.542;49.408;2022-11-11T08:20:12;6.80;76.91
67133;HTU21D;54052;53.542;49.408;2022-11-11T08:22:39;6.67;77.37
67133;HTU21D;54052;53.542;49.408;2022-11-11T08:25:08;6.74;77.65
67133;HTU21D;54052;53.542;49.408;2022-11-11T08:27:35;6.80;77.48
67133;HTU21D;54052;53.542;49.408;2022-11-11T08:30:01;6.83;77.06
67133;HTU21D;54052;53.542;49.408;2022-11-11T08:32:27;6.87;77.62
67133;HTU21D;54052;53.542;49.408;2022-11-11T08:34:54;6.93;76.84
67133;HTU21D;54052;53.542;49.408;2022-11-11T08:37:20;6.96;76.93
67133;HTU21D;54052;53.542;49.408;2022-11-11T08:39:57;7.01;77.00
67133;HTU21D;54052;53.542;49.408;2022-11-11T08:42:24;7.08;76.28
67133;HTU21D;54052;53.542;49.408;2022-11-11T08:44:50;7.00;76.70
67133;HTU21D;54052;53.542;49.408;2022-11-11T08:47:16;6.96;77.39
67133;HTU21D;54052;53.542;49.408;2022-11-11T08:49:44;6.94;77.15
67133;HTU21D;54052;53.542;49.408;2022-11-11T08:52:14;6.91;77.84
67133;HTU21D;54052;53.542;49.408;2022-11-11T08:54:40;6.99;78.21
67133;HTU21D;54052;53.542;49.408;2022-11-11T08:57:06;7.13;77.65
67133;HTU21D;54052;53.542;49.408;2022-11-11T08:59:32;7.12;76.77
67133;HTU21D;54052;53.542;49.408;2022-11-11T09:01:59;7.18;77.16
67133;HTU21D;54052;53.542;49.408;2022-11-11T09:04:25;7.17;77.16
67133;HTU21D;54052;53.542;49.408;2022-11-11T09:06:51;7.26;76.93
67133;HTU21D;54052;53.542;49.408;2022-11-11T09:09:17;7.29;76.67
67133;HTU21D;54052;53.542;49.408;2022-11-11T09:11:43;7.25;77.31
67133;HTU21D;54052;53.542;49.408;2022-11-11T09:14:09;7.20;76.84
67133;HTU21D;54052;53.542;49.408;2022-11-11T09:16:35;7.04;77.32
67133;HTU21D;54052;53.542;49.408;2022-11-11T09:19:02;6.86;78.40
67133;HTU21D;54052;53.542;49.408;2022-11-11T09:21:28;6.96;78.49
67133;HTU21D;54052;53.542;49.408;2022-11-11T09:24:33;6.96;78.14
67133;HTU21D;54052;53.542;49.408;2022-11-11T09:27:07;7.04;77.63
67133;HTU21D;54052;53.542;49.408;2022-11-11T09:29:33;7.08;77.64
67133;HTU21D;54052;53.542;49.408;2022-11-11T09:31:59;7.17;77.59
67133;HTU21D;54052;53.542;49.408;2022-11-11T09:34:25;7.33;77.61
67133;HTU21D;54052;53.542;49.408;2022-11-11T09:36:51;7.46;76.59
67133;HTU21D;54052;53.542;49.408;2022-11-11T09:39:17;7.45;75.72
67133;HTU21D;54052;53.542;49.408;2022-11-11T09:48:02;7.52;76.58
67133;HTU21D;54052;53.542;49.408;2022-11-11T09:50:31;7.58;75.93
67133;HTU21D;54052;53.542;49.408;2022-11-11T09:53:03;7.50;76.66
67133;HTU21D;54052;53.542;49.408;2022-11-11T09:55:39;7.54;76.47
67133;HTU21D;54052;53.542;49.408;2022-11-11T09:58:19;7.63;76.84
67133;HTU21D;54052;53.542;49.408;2022-11-11T10:00:55;7.71;75.39
67133;HTU21D;54052;53.542;49.408;2022-11-11T10:03:24;7.81;75.57
67133;HTU21D;54052;53.542;49.408;2022-11-11T10:06:27;7.88;75.50
67133;HTU21D;54052;53.542;49.408;2022-11-11T10:08:55;7.86;75.55
67133;HTU21D;54052;53.542;49.408;2022-11-11T10:14:00;7.81;74.67
67133;HTU21D;54052;53.542;49.408;2022-11-11T10:22:18;7.76;74.55
67133;HTU21D;54052;53.542;49.408;2022-11-11T10:25:02;7.73;75.07
67133;HTU21D;54052;53.542;49.408;2022-11-11T10:27:30;7.69;75.51
67133;HTU21D;54052;53.542;49.408;2022-11-11T10:29:58;7.79;75.68
67133;HTU21D;54052;53.542;49.408;2022-11-11T10:32:26;7.76;75.31
67133;HTU21D;54052;53.542;49.408;2022-11-11T10:34:54;7.76;76.02
67133;HTU21D;54052;53.542;49.408;2022-11-11T10:40:21;7.79;75.50
67133;HTU21D;54052;53.542;49.408;2022-11-11T10:42:48;7.78;76.05
67133;HTU21D;54052;53.542;49.408;2022-11-11T10:48:20;7.78;75.29
67133;HTU21D;54052;53.542;49.408;2022-11-11T10:50:50;7.70;75.44
67133;HTU21D;54052;53.542;49.408;2022-11-11T10:53:43;7.78;75.54
67133;HTU21D;54052;53.542;49.408;2022-11-11T10:56:24;7.83;74.96
67133;HTU21D;54052;53.542;49.408;2022-11-11T11:01:44;7.90;74.59
67133;HTU21D;54052;53.542;49.408;2022-11-11T11:06:55;7.78;75.79
67133;HTU21D;54052;53.542;49.408;2022-11-11T11:09:46;7.74;75.87
67133;HTU21D;54052;53.542;49.408;2022-11-11T11:12:16;7.71;76.12
67133;HTU21D;54052;53.542;49.408;2022-11-11T11:14:53;7.73;76.08
67133;HTU21D;54052;53.542;49.408;2022-11-11T11:17:26;7.73;75.73
67133;HTU21D;54052;53.542;49.408;2022-11-11T11:20:15;7.75;76.08
67133;HTU21D;54052;53.542;49.408;2022-11-11T11:22:51;7.79;75.83
67133;HTU21D;54052;53.542;49.408;2022-11-11T11:25:19;7.74;75.70
67133;HTU21D;54052;53.542;49.408;2022-11-11T11:27:48;7.76;75.71
67133;HTU21D;54052;53.542;49.408;2022-11-11T11:30:18;7.79;75.55
67133;HTU21D;54052;53.542;49.408;2022-11-11T11:32:56;7.76;74.95
67133;HTU21D;54052;53.542;49.408;2022-11-11T11:37:56;7.74;75.37
67133;HTU21D;54052;53.542;49.408;2022-11-11T11:40:23;7.62;75.71
67133;HTU21D;54052;53.542;49.408;2022-11-11T11:42:49;7.62;76.23
67133;HTU21D;54052;53.542;49.408;2022-11-11T11:50:46;7.68;75.79
67133;HTU21D;54052;53.542;49.408;2022-11-11T11:56:17;7.53;76.23
67133;HTU21D;54052;53.542;49.408;2022-11-11T12:01:28;7.43;76.02
67133;HTU21D;54052;53.542;49.408;2022-11-11T12:13:07;7.32;76.61
67133;HTU21D;54052;53.542;49.408;2022-11-11T12:21:15;7.22;76.37
67133;HTU21D;54052;53.542;49.408;2022-11-11T12:30:02;7.27;76.53
67133;HTU21D;54052;53.542;49.408;2022-11-11T12:32:38;7.17;76.92
67133;HTU21D;54052;53.542;49.408;2022-11-11T12:40:39;7.09;77.35
67133;HTU21D;54052;53.542;49.408;2022-11-11T12:43:25;7.05;77.66
67133;HTU21D;54052;53.542;49.408;2022-11-11T12:57:00;6.98;77.73
67133;HTU21D;54052;53.542;49.408;2022-11-11T13:00:31;6.98;77.66
67133;HTU21D;54052;53.542;49.408;2022-11-11T13:15:55;6.89;78.57
67133;HTU21D;54052;53.542;49.408;2022-11-11T13:18:24;6.87;78.59
67133;HTU21D;54052;53.542;49.408;2022-11-11T13:21:03;6.90;78.33
67133;HTU21D;54052;53.542;49.408;2022-11-11T13:23:31;6.93;78.24
67133;HTU21D;54052;53.542;49.408;2022-11-11T13:26:01;6.94;78.08
67133;HTU21D;54052;53.542;49.408;2022-11-11T13:28:41;6.89;78.11
67133;HTU21D;54052;53.542;49.408;2022-11-11T13:33:48;6.76;77.85
67133;HTU21D;54052;53.542;49.408;2022-11-11T13:36:17;6.75;77.79
67133;HTU21D;54052;53.542;49.408;2022-11-11T13:38:57;6.78;77.47
67133;HTU21D;54052;53.542;49.408;2022-11-11T13:41:31;6.76;77.22
67133;HTU21D;54052;53.542;49.408;2022-11-11T13:44:03;6.71;77.79
67133;HTU21D;54052;53.542;49.408;2022-11-11T13:46:45;6.70;77.98
67133;HTU21D;54052;53.542;49.408;2022-11-11T13:49:31;6.64;78.03
67133;HTU21D;54052;53.542;49.408;2022-11-11T13:52:01;6.57;78.39
67133;HTU21D;54052;53.542;49.408;2022-11-11T13:54:34;6.53;78.44
67133;HTU21D;54052;53.542;49.408;2022-11-11T13:57:07;6.54;78.23
67133;HTU21D;54052;53.542;49.408;2022-11-11T13:59:40;6.55;77.98
67133;HTU21D;54052;53.542;49.408;2022-11-11T14:02:28;6.48;78.71
67133;HTU21D;54052;53.542;49.408;2022-11-11T14:07:54;6.49;78.30
67133;HTU21D;54052;53.542;49.408;2022-11-11T14:12:55;6.46;78.47
67133;HTU21D;54052;53.542;49.408;2022-11-11T14:18:32;6.42;78.56
67133;HTU21D;54052;53.542;49.408;2022-11-11T14:20:55;6.35;79.05
67133;HTU21D;54052;53.542;49.408;2022-11-11T14:23:39;6.38;78.75
67133;HTU21D;54052;53.542;49.408;2022-11-11T14:28:48;6.37;78.64
67133;HTU21D;54052;53.542;49.408;2022-11-11T14:41:55;6.50;78.56
67133;HTU21D;54052;53.542;49.408;2022-11-11T14:49:53;6.63;77.85
67133;HTU21D;54052;53.542;49.408;2022-11-11T14:52:38;6.64;77.76
67133;HTU21D;54052;53.542;49.408;2022-11-11T14:55:33;6.60;77.34
67133;HTU21D;54052;53.542;49.408;2022-11-11T14:58:10;6.60;77.40
67133;HTU21D;54052;53.542;49.408;2022-11-11T15:00:50;6.65;77.85
67133;HTU21D;54052;53.542;49.408;2022-11-11T15:06:15;6.63;78.20
67133;HTU21D;54052;53.542;49.408;2022-11-11T15:09:04;6.63;77.63
67133;HTU21D;54052;53.542;49.408;2022-11-11T15:11:54;6.65;77.60
67133;HTU21D;54052;53.542;49.408;2022-11-11T15:20:43;6.71;77.25
67133;HTU21D;54052;53.542;49.408;2022-11-11T15:26:33;6.71;77.70
67133;HTU21D;54052;53.542;49.408;2022-11-11T15:29:26;6.75;77.42
67133;HTU21D;54052;53.542;49.408;2022-11-11T15:37:52;6.86;76.63
67133;HTU21D;54052;53.542;49.408;2022-11-11T15:40:21;6.83;76.95
67133;HTU21D;54052;53.542;49.408;2022-11-11T15:42:47;6.86;76.98
67133;HTU21D;54052;53.542;49.408;2022-11-11T15:47:46;6.87;76.94
67133;HTU21D;54052;53.542;49.408;2022-11-11T15:52:57;6.88;77.17
67133;HTU21D;54052;53.542;49.408;2022-11-11T15:55:26;6.86;76.81
67133;HTU21D;54052;53.542;49.408;2022-11-11T15:57:52;6.93;76.66
67133;HTU21D;54052;53.542;49.408;2022-11-11T16:00:29;6.89;76.40
67133;HTU21D;54052;53.542;49.408;2022-11-11T16:02:56;6.83;76.71
67133;HTU21D;54052;53.542;49.408;2022-11-11T16:08:19;6.82;77.02
67133;HTU21D;54052;53.542;49.408;2022-11-11T16:10:51;6.83;76.63
67133;HTU21D;54052;53.542;49.408;2022-11-11T16:13:21;6.79;76.85
67133;HTU21D;54052;53.542;49.408;2022-11-11T16:16:02;6.76;76.96
67133;HTU21D;54052;53.542;49.408;2022-11-11T16:18:42;6.73;77.11
67133;HTU21D;54052;53.542;49.408;2022-11-11T16:21:18;6.74;77.11
67133;HTU21D;54052;53.542;49.408;2022-11-11T16:23:46;6.76;76.98
67133;HTU21D;54052;53.542;49.408;2022-11-11T16:26:13;6.75;76.98
67133;HTU21D;54052;53.542;49.408;2022-11-11T16:29:51;6.74;77.41
67133;HTU21D;54052;53.542;49.408;2022-11-11T16:31:46;6.74;76.85
67133;HTU21D;54052;53.542;49.408;2022-11-11T16:36:58;6.70;77.09
67133;HTU21D;54052;53.542;49.408;2022-11-11T16:39:26;6.78;76.95
67133;HTU21D;54052;53.542;49.408;2022-11-11T16:41:56;6.81;76.46
67133;HTU21D;54052;53.542;49.408;2022-11-11T16:44:38;6.81;76.70
67133;HTU21D;54052;53.542;49.408;2022-11-11T16:47:06;6.82;76.47
67133;HTU21D;54052;53.542;49.408;2022-11-11T16:52:26;6.86;77.00
67133;HTU21D;54052;53.542;49.408;2022-11-11T16:54:55;6.83;76.73
67133;HTU21D;54052;53.542;49.408;2022-11-11T16:57:28;6.82;76.56
67133;HTU21D;54052;53.542;49.408;2022-11-11T16:59:59;6.79;76.83
67133;HTU21D;54052;53.542;49.408;2022-11-11T17:02:26;6.81;76.65
67133;HTU21D;54052;53.542;49.408;2022-11-11T17:07:49;6.90;76.34
67133;HTU21D;54052;53.542;49.408;2022-11-11T17:10:22;6.91;76.50
67133;HTU21D;54052;53.542;49.408;2022-11-11T17:12:50;6.91;76.51
67133;HTU21D;54052;53.542;49.408;2022-11-11T17:15:20;6.94;76.22
67133;HTU21D;54052;53.542;49.408;2022-11-11T17:17:46;6.93;76.20
67133;HTU21D;54052;53.542;49.408;2022-11-11T17:20:18;6.94;76.24
67133;HTU21D;54052;53.542;49.408;2022-11-11T17:22:52;6.95;76.24
67133;HTU21D;54052;53.542;49.408;2022-11-11T17:25:19;6.91;76.24
67133;HTU21D;54052;53.542;49.408;2022-11-11T17:27:45;6.90;76.41
67133;HTU21D;54052;53.542;49.408;2022-11-11T17:30:12;6.93;76.22
67133;HTU21D;54052;53.542;49.408;2022-11-11T17:32:38;6.95;76.12
67133;HTU21D;54052;53.542;49.408;2022-11-11T17:35:23;6.91;76.20
67133;HTU21D;54052;53.542;49.408;2022-11-11T17:37:49;6.91;76.35
67133;HTU21D;54052;53.542;49.408;2022-11-11T17:40:21;6.88;76.37
67133;HTU21D;54052;53.542;49.408;2022-11-11T17:42:47;6.93;76.53
67133;HTU21D;54052;53.542;49.408;2022-11-11T17:45:13;6.95;76.28
67133;HTU21D;54052;53.542;49.408;2022-11-11T17:47:39;6.94;75.88
67133;HTU21D;54052;53.542;49.408;2022-11-11T17:50:06;6.97;76.13
67133;HTU21D;54052;53.542;49.408;2022-11-11T17:52:32;6.91;76.41
67133;HTU21D;54052;53.542;49.408;2022-11-11T17:54:58;6.90;76.32
67133;HTU21D;54052;53.542;49.408;2022-11-11T17:57:24;6.93;76.41
67133;HTU21D;54052;53.542;49.408;2022-11-11T17:59:50;6.93;76.28
67133;HTU21D;54052;53.542;49.408;2022-11-11T18:02:16;6.93;76.37
67133;HTU21D;54052;53.542;49.408;2022-11-11T18:04:56;6.90;76.42
67133;HTU21D;54052;53.542;49.408;2022-11-11T18:07:22;6.94;76.52
67133;HTU21D;54052;53.542;49.408;2022-11-11T18:10:04;6.95;76.46
67133;HTU21D;54052;53.542;49.408;2022-11-11T18:12:30;6.91;76.35
67133;HTU21D;54052;53.542;49.408;2022-11-11T18:15:22;6.89;76.45
67133;HTU21D;54052;53.542;49.408;2022-11-11T18:17:48;6.87;76.79
67133;HTU21D;54052;53.542;49.408;2022-11-11T18:20:15;6.88;77.05
67133;HTU21D;54052;53.542;49.408;2022-11-11T18:22:41;6.89;77.27
67133;HTU21D;54052;53.542;49.408;2022-11-11T18:25:08;6.87;77.85
67133;HTU21D;54052;53.542;49.408;2022-11-11T18:27:34;6.82;78.70
67133;HTU21D;54052;53.542;49.408;2022-11-11T18:30:07;6.80;79.27
67133;HTU21D;54052;53.542;49.408;2022-11-11T18:32:33;6.79;79.32
67133;HTU21D;54052;53.542;49.408;2022-11-11T18:34:59;6.73;80.20